createdAt,value
2019-05-06T00:00:36.544Z,3.33
2019-05-06T00:05:40.932Z,3.30
2019-05-06T00:10:45.361Z,2.93
2019-05-06T00:15:50.644Z,2.97
2019-05-06T00:20:57.823Z,2.60
2019-05-06T00:26:04.038Z,3.10
2019-05-06T00:31:13.137Z,3.80
2019-05-06T00:36:15.947Z,3.77
2019-05-06T00:41:20.194Z,3.43
2019-05-06T00:46:24.494Z,3.60
2019-05-06T00:51:28.624Z,3.63
2019-05-06T00:56:34.082Z,3.47
2019-05-06T01:01:38.523Z,3.23
2019-05-06T01:06:44.041Z,3.80
2019-05-06T01:11:48.509Z,4.30
2019-05-06T01:16:54.797Z,4.30
2019-05-06T01:21:58.922Z,4.10
2019-05-06T01:27:04.015Z,3.20
2019-05-06T01:32:08.348Z,3.43
2019-05-06T01:37:14.244Z,3.63
2019-05-06T01:42:18.633Z,3.53
2019-05-06T01:47:23.769Z,3.83
2019-05-06T01:52:28.199Z,4.37
2019-05-06T01:57:33.761Z,3.67
2019-05-06T02:02:38.665Z,3.67
2019-05-06T02:07:44.078Z,4.10
2019-05-06T02:12:48.514Z,4.43
2019-05-06T02:17:55.001Z,3.63
2019-05-06T02:22:58.756Z,3.80
2019-05-06T02:28:03.988Z,4.17
2019-05-06T02:33:08.473Z,4.10
2019-05-06T02:38:12.744Z,4.37
2019-05-06T02:43:16.973Z,4.93
2019-05-06T02:48:22.925Z,4.30
2019-05-06T02:53:27.248Z,4.50
2019-05-06T02:58:33.091Z,5.03
2019-05-06T03:03:37.569Z,4.50
2019-05-06T03:08:43.445Z,4.60
2019-05-06T03:13:47.571Z,3.83
2019-05-06T03:18:54.365Z,5.03
2019-05-06T03:23:57.691Z,4.03
2019-05-06T03:29:02.900Z,3.97
2019-05-06T03:34:35.384Z,4.83
2019-05-06T03:39:14.349Z,4.30
2019-05-06T03:44:18.598Z,4.40
2019-05-06T03:49:23.826Z,4.53
2019-05-06T03:54:29.003Z,4.40
2019-05-06T03:59:33.966Z,3.97
2019-05-06T04:04:38.198Z,4.70
2019-05-06T04:09:44.178Z,5.00
2019-05-06T04:14:48.256Z,3.73
2019-05-06T04:19:53.597Z,4.00
2019-05-06T04:24:57.839Z,4.70
2019-05-06T04:30:04.607Z,4.93
2019-05-06T04:35:08.435Z,5.03
2019-05-06T04:40:13.264Z,5.47
2019-05-06T04:45:17.682Z,5.70
2019-05-06T04:50:24.145Z,4.47
2019-05-06T04:55:27.985Z,5.00
2019-05-06T05:00:33.245Z,5.03
2019-05-06T05:05:37.493Z,4.60
2019-05-06T05:10:43.201Z,4.23
2019-05-06T05:15:47.605Z,4.40
2019-05-06T05:20:52.864Z,4.67
2019-05-06T05:25:57.476Z,4.37
2019-05-06T05:31:03.074Z,4.27
2019-05-06T05:36:07.605Z,4.40
2019-05-06T05:41:12.848Z,4.30
2019-05-06T05:46:17.204Z,3.67
2019-05-06T05:51:22.229Z,4.23
2019-05-06T05:56:26.623Z,3.70
2019-05-06T06:01:32.679Z,3.60
2019-05-06T06:06:37.108Z,3.10
2019-05-06T06:11:42.100Z,3.87
2019-05-06T06:16:46.434Z,3.70
2019-05-06T06:21:52.381Z,3.30
2019-05-06T06:26:56.790Z,4.63
2019-05-06T06:32:03.017Z,3.07
2019-05-06T06:37:06.943Z,3.40
2019-05-06T06:42:12.644Z,3.10
2019-05-06T06:47:17.161Z,3.70
2019-05-06T06:52:23.100Z,3.60
2019-05-06T06:57:27.709Z,3.30
2019-05-06T07:02:33.240Z,3.50
2019-05-06T07:07:43.517Z,3.30
2019-05-06T07:12:43.560Z,3.10
2019-05-06T07:17:47.841Z,4.37
2019-05-06T07:22:53.008Z,4.03
2019-05-06T07:27:57.543Z,4.00
2019-05-06T07:33:03.610Z,5.93
2019-05-06T07:38:07.760Z,3.40
2019-05-06T07:43:13.267Z,3.00
2019-05-06T07:48:17.496Z,2.27
2019-05-06T07:53:22.494Z,2.77
2019-05-06T07:58:27.021Z,2.67
2019-05-06T08:03:32.968Z,2.60
2019-05-06T08:08:37.092Z,2.60
2019-05-06T08:13:43.477Z,2.87
2019-05-06T08:18:47.330Z,2.43
2019-05-06T08:23:52.348Z,2.30
2019-05-06T08:28:56.743Z,2.97
2019-05-06T08:34:02.651Z,2.73
2019-05-06T08:39:07.389Z,2.33
2019-05-06T08:44:12.774Z,3.03
2019-05-06T08:49:17.219Z,3.00
2019-05-06T08:54:22.785Z,2.50
2019-05-06T08:59:27.199Z,2.40
2019-05-06T09:04:32.160Z,3.07
2019-05-06T09:09:36.556Z,2.80
2019-05-06T09:14:42.993Z,2.33
2019-05-06T09:19:47.492Z,2.50
2019-05-06T09:24:53.104Z,2.10
2019-05-06T09:29:57.567Z,2.40
2019-05-06T09:35:02.957Z,2.20
2019-05-06T09:40:09.054Z,2.20
2019-05-06T09:45:13.868Z,3.00
2019-05-06T09:50:34.070Z,2.73
2019-05-06T09:55:38.581Z,9.70
2019-05-06T10:00:43.162Z,2.23
2019-05-06T10:05:47.754Z,2.63
2019-05-06T10:10:56.889Z,2.43
2019-05-06T10:15:58.275Z,2.87
2019-05-06T10:21:02.462Z,2.40
2019-05-06T10:26:08.180Z,3.47
2019-05-06T10:31:12.820Z,3.00
2019-05-06T10:36:17.190Z,2.80
2019-05-06T10:41:23.759Z,2.97
2019-05-06T10:46:27.987Z,2.73
2019-05-06T10:51:32.555Z,2.67
2019-05-06T10:56:49.965Z,2.57
2019-05-06T11:01:43.119Z,2.57
2019-05-06T11:06:47.409Z,2.70
2019-05-06T11:11:51.660Z,2.50
2019-05-06T11:16:56.471Z,2.40
2019-05-06T11:22:03.396Z,2.63
2019-05-06T11:27:06.792Z,2.30
2019-05-06T11:32:12.818Z,2.50
2019-05-06T11:37:17.380Z,2.20
2019-05-06T11:42:31.773Z,2.30
2019-05-06T11:47:27.605Z,2.87
2019-05-06T11:52:34.465Z,2.50
2019-05-06T11:57:37.807Z,3.43
2019-05-06T12:02:45.130Z,2.87
2019-05-06T12:08:00.813Z,2.37
2019-05-06T12:12:53.832Z,2.70
2019-05-06T12:17:58.217Z,2.43
2019-05-06T12:23:04.450Z,2.43
2019-05-06T12:28:08.499Z,2.93
2019-05-06T12:33:13.175Z,3.27
2019-05-06T12:38:29.655Z,2.90
2019-05-06T12:43:23.763Z,3.00
2019-05-06T12:48:28.408Z,3.10
2019-05-06T12:53:32.889Z,2.70
2019-05-06T12:58:37.406Z,3.33
2019-05-06T13:03:43.253Z,3.33
2019-05-06T13:08:58.774Z,3.10
2019-05-06T13:14:00.067Z,3.23
2019-05-06T13:18:59.520Z,2.87
2019-05-06T13:24:04.559Z,3.40
2019-05-06T13:29:09.195Z,3.40
2019-05-06T13:34:13.609Z,3.33
2019-05-06T13:39:18.055Z,2.90
2019-05-06T13:44:22.947Z,3.53
2019-05-06T13:49:28.747Z,3.97
2019-05-06T13:54:33.189Z,4.80
2019-05-06T13:59:37.843Z,3.50
2019-05-06T14:04:44.324Z,4.00
2019-05-06T14:09:48.255Z,4.10
2019-05-06T14:14:52.799Z,4.13
2019-05-06T14:19:57.372Z,4.60
2019-05-06T14:25:01.706Z,3.50
2019-05-06T14:30:06.765Z,3.60
2019-05-06T14:35:12.170Z,3.73
2019-05-06T14:40:16.650Z,4.17
2019-05-06T14:45:22.141Z,5.30
2019-05-06T14:50:32.101Z,4.20
2019-05-06T14:55:32.853Z,4.57
2019-05-06T15:00:37.229Z,4.00
2019-05-06T15:05:43.699Z,4.73
2019-05-06T15:10:49.487Z,4.33
2019-05-06T15:15:54.247Z,3.53
2019-05-06T15:21:27.492Z,4.27
2019-05-06T15:26:04.375Z,3.67
2019-05-06T15:31:08.628Z,4.50
2019-05-06T15:36:13.022Z,4.50
2019-05-06T15:41:17.278Z,5.40
2019-05-06T15:46:22.811Z,4.40
2019-05-06T15:51:27.385Z,4.03
2019-05-06T15:56:33.253Z,4.03
2019-05-06T16:01:37.584Z,4.23
2019-05-06T16:06:44.654Z,3.60
2019-05-06T16:11:48.914Z,4.37
2019-05-06T16:16:53.090Z,3.87
2019-05-06T16:21:57.433Z,4.20
2019-05-06T16:27:03.096Z,3.40
2019-05-06T16:32:08.139Z,4.30
2019-05-06T16:37:12.713Z,4.00
2019-05-06T16:42:17.035Z,4.37
2019-05-06T16:47:22.457Z,4.63
2019-05-06T16:52:27.113Z,3.57
2019-05-06T16:57:33.345Z,4.37
2019-05-06T17:02:37.833Z,4.37
2019-05-06T17:07:42.227Z,4.13
2019-05-06T17:12:48.082Z,4.13
2019-05-06T17:17:53.209Z,4.27
2019-05-06T17:22:57.837Z,2.70
2019-05-06T17:28:02.475Z,4.20
2019-05-06T17:33:07.003Z,3.13
2019-05-06T17:38:11.419Z,4.07
2019-05-06T17:43:17.370Z,4.07
2019-05-06T17:48:27.372Z,4.43
2019-05-06T17:53:32.451Z,4.17
2019-05-06T17:58:35.819Z,3.83
2019-05-06T18:03:42.277Z,3.90
2019-05-06T18:08:46.585Z,3.17
2019-05-06T18:13:52.120Z,3.03
2019-05-06T18:18:56.690Z,3.80
2019-05-06T18:24:03.000Z,4.00
2019-05-06T18:29:06.938Z,4.27
2019-05-06T18:34:12.932Z,3.97
2019-05-06T18:39:17.094Z,4.17
2019-05-06T18:44:22.679Z,3.90
2019-05-06T18:49:29.321Z,3.33
2019-05-06T18:54:34.588Z,3.50
2019-05-06T18:59:38.850Z,4.07
2019-05-06T19:04:43.127Z,4.20
2019-05-06T19:09:47.505Z,3.50
2019-05-06T19:14:52.551Z,4.00
2019-05-06T19:19:57.112Z,4.53
2019-05-06T19:25:02.753Z,4.37
2019-05-06T19:30:09.086Z,5.00
2019-05-06T19:35:16.535Z,4.77
2019-05-06T19:40:22.808Z,3.60
2019-05-06T19:45:29.311Z,4.83
2019-05-06T19:50:36.814Z,3.83
2019-05-06T19:55:46.678Z,3.90
2019-05-06T20:00:52.905Z,4.40
2019-05-06T20:05:57.253Z,4.83
2019-05-06T20:11:02.677Z,5.40
2019-05-06T20:16:07.436Z,6.57
2019-05-06T20:21:11.606Z,5.60
2019-05-06T20:26:15.851Z,5.17
2019-05-06T20:31:22.618Z,4.77
2019-05-06T20:36:27.312Z,4.97
2019-05-06T20:41:33.817Z,6.90
2019-05-06T20:46:39.843Z,7.90
2019-05-06T20:51:44.645Z,6.20
2019-05-06T20:56:53.100Z,6.57
2019-05-06T21:01:58.715Z,6.40
2019-05-06T21:07:04.836Z,6.63
2019-05-06T21:12:09.229Z,6.97
2019-05-06T21:17:14.098Z,7.70
2019-05-06T21:22:18.322Z,7.67
2019-05-06T21:27:23.757Z,8.03
2019-05-06T21:32:28.004Z,8.13
2019-05-06T21:37:34.189Z,9.23
2019-05-06T21:42:38.446Z,7.00
2019-05-06T21:47:46.102Z,7.20
2019-05-06T21:52:49.757Z,6.83
2019-05-06T21:57:53.964Z,6.93
2019-05-06T22:02:58.245Z,6.63
2019-05-06T22:08:02.495Z,6.53
2019-05-06T22:13:06.771Z,8.03
2019-05-06T22:18:12.450Z,9.03
2019-05-06T22:23:17.112Z,7.20
2019-05-06T22:28:22.703Z,6.40
2019-05-06T22:33:28.943Z,6.63
2019-05-06T22:38:35.285Z,8.20
2019-05-06T22:43:39.488Z,7.57
2019-05-06T22:48:43.631Z,7.93
2019-05-06T22:53:47.788Z,6.20
2019-05-06T22:58:52.570Z,6.10
2019-05-06T23:03:56.969Z,5.73
2019-05-06T23:09:02.878Z,6.20
2019-05-06T23:14:07.610Z,5.60
2019-05-06T23:19:13.527Z,6.47
2019-05-06T23:24:18.478Z,6.20
2019-05-06T23:29:25.148Z,6.07
2019-05-06T23:34:29.380Z,6.90
2019-05-06T23:39:52.488Z,6.87
2019-05-06T23:45:14.449Z,6.60
2019-05-06T23:50:36.081Z,6.50
2019-05-06T23:55:58.955Z,5.93
